createdAt,value
2018-03-12T00:00:57.924Z,71.80
2018-03-12T00:03:25.893Z,71.70
2018-03-12T00:05:53.877Z,71.70
2018-03-12T00:08:23.480Z,71.70
2018-03-12T00:10:53.707Z,71.80
2018-03-12T00:13:21.569Z,71.80
2018-03-12T00:15:49.794Z,72.10
2018-03-12T00:18:17.798Z,72.20
2018-03-12T00:20:46.603Z,72.40
2018-03-12T00:23:16.091Z,72.40
2018-03-12T00:25:44.060Z,72.40
2018-03-12T00:28:11.937Z,72.60
2018-03-12T00:30:40.069Z,72.70
2018-03-12T00:33:07.981Z,72.70
2018-03-12T00:35:36.600Z,72.90
2018-03-12T00:38:04.535Z,72.60
2018-03-12T00:40:33.881Z,72.90
2018-03-12T00:43:02.605Z,73.20
2018-03-12T00:45:30.587Z,73.20
2018-03-12T00:48:00.191Z,73.20
2018-03-12T00:50:29.433Z,73.30
2018-03-12T00:52:57.363Z,73.30
2018-03-12T00:55:26.033Z,73.60
2018-03-12T00:57:54.412Z,73.60
2018-03-12T01:00:22.663Z,73.70
2018-03-12T01:02:50.870Z,73.80
2018-03-12T01:05:19.544Z,73.80
2018-03-12T01:07:47.529Z,73.60
2018-03-12T01:10:15.702Z,73.50
2018-03-12T01:12:44.162Z,73.60
2018-03-12T01:15:12.658Z,73.90
2018-03-12T01:17:40.712Z,73.30
2018-03-12T01:20:09.833Z,73.30
2018-03-12T01:22:38.282Z,73.30
2018-03-12T01:25:06.774Z,74.80
2018-03-12T01:27:36.014Z,74.00
2018-03-12T01:30:04.888Z,74.50
2018-03-12T01:32:33.905Z,74.40
2018-03-12T01:35:02.376Z,74.00
2018-03-12T01:37:32.161Z,74.50
2018-03-12T01:40:00.930Z,74.50
2018-03-12T01:42:28.772Z,74.70
2018-03-12T01:44:56.681Z,74.70
2018-03-12T01:47:24.545Z,74.00
2018-03-12T01:49:53.233Z,73.00
2018-03-12T01:52:21.082Z,72.40
2018-03-12T01:54:48.947Z,71.90
2018-03-12T01:57:17.947Z,72.00
2018-03-12T01:59:45.807Z,72.00
2018-03-12T02:02:13.993Z,71.80
2018-03-12T02:04:42.479Z,70.70
2018-03-12T02:07:11.861Z,71.50
2018-03-12T02:09:40.241Z,71.50
2018-03-12T02:12:08.124Z,73.10
2018-03-12T02:14:36.073Z,73.40
2018-03-12T02:17:04.739Z,73.60
2018-03-12T02:19:32.750Z,73.40
2018-03-12T02:22:00.616Z,72.50
2018-03-12T02:24:28.787Z,74.20
2018-03-12T02:26:57.456Z,73.40
2018-03-12T02:29:26.088Z,73.80
2018-03-12T02:31:55.951Z,74.50
2018-03-12T02:34:24.309Z,74.10
2018-03-12T02:36:52.891Z,74.40
2018-03-12T02:39:20.798Z,75.90
2018-03-12T02:41:48.643Z,75.30
2018-03-12T02:44:16.924Z,76.10
2018-03-12T02:46:45.607Z,74.60
2018-03-12T02:49:13.475Z,74.60
2018-03-12T02:51:41.443Z,75.10
2018-03-12T02:54:09.280Z,75.70
2018-03-12T02:56:37.941Z,76.70
2018-03-12T02:59:06.082Z,76.40
2018-03-12T03:01:35.177Z,76.60
2018-03-12T03:04:03.856Z,75.80
2018-03-12T03:06:32.528Z,73.50
2018-03-12T03:09:00.616Z,73.50
2018-03-12T03:11:29.464Z,75.80
2018-03-12T03:13:57.971Z,75.70
2018-03-12T03:16:26.742Z,77.90
2018-03-12T03:18:54.638Z,78.60
2018-03-12T03:21:22.504Z,78.90
2018-03-12T03:23:50.375Z,78.40
2018-03-12T03:26:18.343Z,77.60
2018-03-12T03:28:47.130Z,77.60
2018-03-12T03:31:15.001Z,76.60
2018-03-12T03:33:43.680Z,77.70
2018-03-12T03:36:11.526Z,77.60
2018-03-12T03:38:39.514Z,77.60
2018-03-12T03:41:08.304Z,76.10
2018-03-12T03:43:37.030Z,76.10
2018-03-12T03:46:06.888Z,79.20
2018-03-12T03:48:34.774Z,79.20
2018-03-12T03:51:02.734Z,78.80
2018-03-12T03:53:31.409Z,78.30
2018-03-12T03:55:59.688Z,77.80
2018-03-12T03:58:27.561Z,77.30
2018-03-12T04:00:55.518Z,76.50
2018-03-12T04:03:23.383Z,75.80
2018-03-12T04:05:51.366Z,77.80
2018-03-12T04:08:19.847Z,78.40
2018-03-12T04:10:49.005Z,81.10
2018-03-12T04:13:16.896Z,80.30
2018-03-12T04:15:44.870Z,80.30
2018-03-12T04:18:12.747Z,79.40
2018-03-12T04:20:40.611Z,80.00
2018-03-12T04:23:08.965Z,80.40
2018-03-12T04:25:37.369Z,80.20
2018-03-12T04:28:06.053Z,80.90
2018-03-12T04:30:34.839Z,81.50
2018-03-12T04:33:03.844Z,81.40
2018-03-12T04:35:33.030Z,82.40
2018-03-12T04:38:03.150Z,82.30
2018-03-12T04:40:31.513Z,83.40
2018-03-12T04:42:59.390Z,82.60
2018-03-12T04:45:28.065Z,82.90
2018-03-12T04:47:56.149Z,82.80
2018-03-12T04:50:25.344Z,82.80
2018-03-12T04:52:53.729Z,82.90
2018-03-12T04:55:21.578Z,82.70
2018-03-12T04:57:50.452Z,83.10
2018-03-12T05:00:19.970Z,81.30
2018-03-12T05:02:47.850Z,81.10
2018-03-12T05:05:15.807Z,80.50
2018-03-12T05:07:43.791Z,80.00
2018-03-12T05:10:12.476Z,79.50
2018-03-12T05:12:41.159Z,79.30
2018-03-12T05:15:09.129Z,79.20
2018-03-12T05:17:37.508Z,79.40
2018-03-12T05:20:06.904Z,79.50
2018-03-12T05:22:34.760Z,78.40
2018-03-12T05:25:02.933Z,78.20
2018-03-12T05:27:32.233Z,77.20
2018-03-12T05:30:00.096Z,77.10
2018-03-12T05:32:28.085Z,77.30
2018-03-12T05:34:56.755Z,76.80
2018-03-12T05:37:25.238Z,76.80
2018-03-12T05:39:53.100Z,76.80
2018-03-12T05:42:21.084Z,77.70
2018-03-12T05:44:49.143Z,78.20
2018-03-12T05:47:17.940Z,78.60
2018-03-12T05:49:47.446Z,80.20
2018-03-12T05:52:15.258Z,80.10
2018-03-12T05:54:43.468Z,79.80
2018-03-12T05:57:12.770Z,79.90
2018-03-12T05:59:41.374Z,80.10
2018-03-12T06:02:09.591Z,79.60
2018-03-12T06:04:38.475Z,79.70
2018-03-12T06:07:06.502Z,80.50
2018-03-12T06:09:36.008Z,79.70
2018-03-12T06:12:03.873Z,79.60
2018-03-12T06:14:32.253Z,78.90
2018-03-12T06:17:00.594Z,78.50
2018-03-12T06:19:28.707Z,78.20
2018-03-12T06:21:57.590Z,78.40
2018-03-12T06:24:25.579Z,78.20
2018-03-12T06:26:54.948Z,75.70
2018-03-12T06:29:23.739Z,75.60
2018-03-12T06:31:52.843Z,74.80
2018-03-12T06:34:21.197Z,74.00
2018-03-12T06:36:49.186Z,73.20
2018-03-12T06:39:18.077Z,71.70
2018-03-12T06:41:45.949Z,70.90
2018-03-12T06:44:15.077Z,69.90
2018-03-12T06:46:43.119Z,69.30
2018-03-12T06:49:10.984Z,67.80
2018-03-12T06:51:39.767Z,66.10
2018-03-12T06:54:07.844Z,66.10
2018-03-12T06:56:35.891Z,64.60
2018-03-12T06:59:04.486Z,63.70
2018-03-12T07:01:32.435Z,63.80
2018-03-12T07:04:00.414Z,64.40
2018-03-12T07:06:28.811Z,64.30
2018-03-12T07:08:59.131Z,64.10
2018-03-12T07:11:28.821Z,65.00
2018-03-12T07:13:56.916Z,64.90
2018-03-12T07:16:24.881Z,65.50
2018-03-12T07:18:53.064Z,65.70
2018-03-12T07:21:21.841Z,65.40
2018-03-12T07:23:49.865Z,65.30
2018-03-12T07:26:17.980Z,65.10
2018-03-12T07:28:45.850Z,65.10
2018-03-12T07:31:13.804Z,64.70
2018-03-12T07:33:41.790Z,63.30
2018-03-12T07:36:09.862Z,61.80
2018-03-12T07:38:37.928Z,61.00
2018-03-12T07:41:06.027Z,61.30
2018-03-12T07:43:33.954Z,60.90
2018-03-12T07:46:01.935Z,61.00
2018-03-12T07:48:29.897Z,60.70
2018-03-12T07:50:57.772Z,60.60
2018-03-12T07:53:26.657Z,60.20
2018-03-12T07:55:54.613Z,60.10
2018-03-12T07:58:22.585Z,60.70
2018-03-12T08:00:50.670Z,61.50
2018-03-12T08:03:18.635Z,61.70
2018-03-12T08:05:46.506Z,61.90
2018-03-12T08:08:14.513Z,62.30
2018-03-12T08:10:42.510Z,62.20
2018-03-12T08:16:06.711Z,62.90
2018-03-12T08:18:35.942Z,62.90
2018-03-12T08:21:03.907Z,63.00
2018-03-12T08:23:32.591Z,62.10
2018-03-12T08:26:00.586Z,61.90
2018-03-12T08:28:28.636Z,61.20
2018-03-12T08:30:57.523Z,61.20
2018-03-12T08:33:25.599Z,60.70
2018-03-12T08:35:54.122Z,60.70
2018-03-12T08:38:24.464Z,60.90
2018-03-12T08:40:53.393Z,61.30
2018-03-12T08:43:22.284Z,61.00
2018-03-12T08:45:50.339Z,61.00
2018-03-12T08:48:18.423Z,61.20
2018-03-12T08:50:46.500Z,61.10
2018-03-12T08:53:14.562Z,60.60
2018-03-12T08:55:42.569Z,60.70
2018-03-12T08:58:10.709Z,61.00
2018-03-12T09:00:39.687Z,60.40
2018-03-12T09:03:07.772Z,60.30
2018-03-12T09:05:36.762Z,61.00
2018-03-12T09:08:05.452Z,61.30
2018-03-12T09:10:33.507Z,61.30
2018-03-12T09:13:01.490Z,62.10
2018-03-12T09:15:30.775Z,62.30
2018-03-12T09:17:58.866Z,62.30
2018-03-12T09:20:27.737Z,63.40
2018-03-12T09:22:55.828Z,63.40
2018-03-12T09:25:24.598Z,63.20
2018-03-12T09:27:53.396Z,63.10
2018-03-12T09:30:22.104Z,63.10
2018-03-12T09:32:50.754Z,63.50
2018-03-12T09:35:18.741Z,63.50
2018-03-12T09:37:46.807Z,64.30
2018-03-12T09:40:15.786Z,64.60
2018-03-12T09:42:43.675Z,64.00
2018-03-12T09:45:11.842Z,64.30
2018-03-12T09:47:41.757Z,64.70
2018-03-12T09:50:11.353Z,64.70
2018-03-12T09:52:39.435Z,64.50
2018-03-12T09:55:08.311Z,63.80
2018-03-12T09:57:37.926Z,62.30
2018-03-12T10:00:07.739Z,61.20
2018-03-12T10:02:37.431Z,60.80
2018-03-12T10:05:05.420Z,60.80
2018-03-12T10:07:35.832Z,60.80
2018-03-12T10:10:04.110Z,60.80
2018-03-12T10:12:33.109Z,60.50
2018-03-12T10:15:01.170Z,60.60
2018-03-12T10:17:32.016Z,61.00
2018-03-12T10:20:00.195Z,60.90
2018-03-12T10:22:29.393Z,61.30
2018-03-12T10:24:58.190Z,61.10
2018-03-12T10:27:26.965Z,61.90
2018-03-12T10:29:55.740Z,62.60
2018-03-12T10:32:24.427Z,62.50
2018-03-12T10:34:54.016Z,63.50
2018-03-12T10:37:21.914Z,63.50
2018-03-12T10:39:50.699Z,63.90
2018-03-12T10:42:18.670Z,64.80
2018-03-12T10:44:46.829Z,65.40
2018-03-12T10:47:15.617Z,65.90
2018-03-12T10:49:43.686Z,66.10
2018-03-12T10:52:11.570Z,66.20
2018-03-12T10:54:40.439Z,66.40
2018-03-12T10:57:09.249Z,66.40
2018-03-12T10:59:38.288Z,66.10
2018-03-12T11:02:06.824Z,66.00
2018-03-12T11:04:38.781Z,65.40
2018-03-12T11:07:14.761Z,65.40
2018-03-12T11:09:43.611Z,65.60
2018-03-12T11:12:11.602Z,65.40
2018-03-12T11:14:41.518Z,65.70
2018-03-12T11:17:09.529Z,66.40
2018-03-12T11:19:37.432Z,65.80
2018-03-12T11:22:05.419Z,66.10
2018-03-12T11:24:34.206Z,66.20
2018-03-12T11:27:02.286Z,66.20
2018-03-12T11:29:30.552Z,66.40
2018-03-12T11:31:58.501Z,66.30
2018-03-12T11:34:26.369Z,66.60
2018-03-12T11:36:55.194Z,66.70
2018-03-12T11:39:23.128Z,66.60
2018-03-12T11:41:51.214Z,66.50
2018-03-12T11:44:20.090Z,66.80
2018-03-12T11:46:48.073Z,66.70
2018-03-12T11:49:16.145Z,66.40
2018-03-12T11:51:44.216Z,66.70
2018-03-12T11:54:13.208Z,66.60
2018-03-12T11:56:42.291Z,66.40
2018-03-12T11:59:10.263Z,66.40
2018-03-12T12:01:38.245Z,66.00
2018-03-12T12:04:06.914Z,65.70
2018-03-12T12:06:34.998Z,65.70
2018-03-12T12:09:03.360Z,65.80
2018-03-12T12:11:31.446Z,66.20
2018-03-12T12:14:00.540Z,66.40
2018-03-12T12:16:29.852Z,66.00
2018-03-12T12:18:58.816Z,64.50
2018-03-12T12:21:28.017Z,63.10
2018-03-12T12:23:56.187Z,63.00
2018-03-12T12:26:24.070Z,62.30
2018-03-12T12:28:52.025Z,62.30
2018-03-12T12:31:20.914Z,62.50
2018-03-12T12:33:49.824Z,62.90
2018-03-12T12:36:18.808Z,63.50
2018-03-12T12:38:48.860Z,63.60
2018-03-12T12:41:17.087Z,63.60
2018-03-12T12:49:30.433Z,64.20
2018-03-12T12:51:59.684Z,64.00
2018-03-12T12:54:29.078Z,64.60
2018-03-12T12:56:58.280Z,65.10
2018-03-12T12:59:26.747Z,65.00
2018-03-12T13:01:56.147Z,65.50
2018-03-12T13:04:24.645Z,65.50
2018-03-12T13:06:54.799Z,66.00
2018-03-12T13:09:23.461Z,65.90
2018-03-12T13:11:53.536Z,66.10
2018-03-12T13:14:23.566Z,66.10
2018-03-12T13:16:53.371Z,66.40
2018-03-12T13:19:23.602Z,66.60
2018-03-12T13:21:52.887Z,66.60
2018-03-12T13:24:23.176Z,68.10
2018-03-12T13:27:08.933Z,68.00
2018-03-12T13:29:53.188Z,68.90
2018-03-12T13:32:24.177Z,77.50
2018-03-12T13:34:54.460Z,76.20
2018-03-12T13:37:24.150Z,76.20
2018-03-12T13:39:53.901Z,78.90
2018-03-12T13:42:24.466Z,79.90
2018-03-12T13:44:54.123Z,80.70
2018-03-12T13:47:23.780Z,82.60
2018-03-12T13:49:54.715Z,80.20
2018-03-12T13:52:27.070Z,81.10
2018-03-12T13:54:57.171Z,78.80
2018-03-12T13:57:27.498Z,76.30
2018-03-12T14:02:53.508Z,72.20
2018-03-12T14:05:23.295Z,72.20
2018-03-12T14:07:52.722Z,70.70
2018-03-12T14:10:22.430Z,70.60
2018-03-12T14:12:51.938Z,71.30
2018-03-12T14:15:22.471Z,70.50
2018-03-12T14:17:52.685Z,69.90
2018-03-12T14:20:23.652Z,69.70
2018-03-12T14:22:53.633Z,70.60
2018-03-12T14:25:24.137Z,70.60
2018-03-12T14:27:54.587Z,71.00
2018-03-12T14:30:24.221Z,69.40
2018-03-12T14:32:54.669Z,70.80
2018-03-12T14:35:24.441Z,70.70
2018-03-12T14:37:55.723Z,72.90
2018-03-12T14:40:25.795Z,72.70
2018-03-12T14:42:55.349Z,70.50
2018-03-12T14:45:25.870Z,72.00
2018-03-12T14:47:56.436Z,71.20
2018-03-12T14:50:26.176Z,71.20
2018-03-12T14:52:55.983Z,71.00
2018-03-12T14:55:25.715Z,69.80
2018-03-12T14:57:56.432Z,69.60
2018-03-12T15:00:26.822Z,69.60
2018-03-12T15:02:56.497Z,72.10
2018-03-12T15:05:26.122Z,72.80
2018-03-12T15:07:56.045Z,71.20
2018-03-12T15:10:25.825Z,71.90
2018-03-12T15:12:55.623Z,71.80
2018-03-12T15:15:25.892Z,71.90
2018-03-12T15:17:56.016Z,71.40
2018-03-12T15:20:26.110Z,71.60
2018-03-12T15:22:56.477Z,71.90
2018-03-12T15:25:27.220Z,71.30
2018-03-12T15:27:57.158Z,71.20
2018-03-12T15:30:27.893Z,71.80
2018-03-12T15:32:58.316Z,71.80
2018-03-12T15:35:28.863Z,71.90
2018-03-12T15:37:59.237Z,71.70
2018-03-12T15:40:29.143Z,71.80
2018-03-12T15:42:58.797Z,71.50
2018-03-12T15:45:29.293Z,71.50
2018-03-12T15:47:58.844Z,71.50
2018-03-12T15:50:29.512Z,72.50
2018-03-12T15:52:58.977Z,72.50
2018-03-12T15:55:28.649Z,72.80
2018-03-12T15:57:58.666Z,73.00
2018-03-12T16:00:28.370Z,73.70
2018-03-12T16:02:58.447Z,76.50
2018-03-12T16:05:28.154Z,77.10
2018-03-12T16:07:58.051Z,79.30
2018-03-12T16:10:27.760Z,77.30
2018-03-12T16:12:57.543Z,79.30
2018-03-12T16:15:27.469Z,81.00
2018-03-12T16:17:57.277Z,81.70
2018-03-12T16:20:27.626Z,83.30
2018-03-12T16:22:57.270Z,83.30
2018-03-12T16:25:27.223Z,82.70
2018-03-12T16:27:57.074Z,82.30
2018-03-12T16:30:27.298Z,83.10
2018-03-12T16:32:57.407Z,81.70
2018-03-12T16:35:27.220Z,81.40
2018-03-12T16:37:56.815Z,81.50
2018-03-12T16:40:27.188Z,81.10
2018-03-12T16:42:57.039Z,81.10
2018-03-12T16:45:27.479Z,81.20
2018-03-12T16:47:57.113Z,81.10
2018-03-12T16:50:27.105Z,80.70
2018-03-12T16:52:57.232Z,80.70
2018-03-12T16:55:27.315Z,80.90
2018-03-12T16:57:58.036Z,80.10
2018-03-12T17:00:28.846Z,80.10
2018-03-12T17:02:58.766Z,80.90
2018-03-12T17:05:28.437Z,79.60
2018-03-12T17:07:58.266Z,79.20
2018-03-12T17:10:28.507Z,79.10
2018-03-12T17:12:59.937Z,78.10
2018-03-12T17:15:29.804Z,77.90
2018-03-12T17:17:59.554Z,78.10
2018-03-12T17:20:30.336Z,78.10
2018-03-12T17:23:00.356Z,76.60
2018-03-12T17:25:30.701Z,76.40
2018-03-12T17:28:01.360Z,76.60
2018-03-12T17:30:31.300Z,76.50
2018-03-12T17:33:02.146Z,75.80
2018-03-12T17:35:30.626Z,75.70
2018-03-12T17:37:59.865Z,76.00
2018-03-12T17:40:28.792Z,76.00
2018-03-12T17:42:57.674Z,75.70
2018-03-12T17:45:26.283Z,75.60
2018-03-12T17:47:55.813Z,76.20
2018-03-12T17:50:24.322Z,76.20
2018-03-12T17:52:53.035Z,76.70
2018-03-12T17:55:21.731Z,76.90
2018-03-12T17:57:51.556Z,76.70
2018-03-12T18:00:20.749Z,77.30
2018-03-12T18:02:50.875Z,78.40
2018-03-12T18:05:20.567Z,77.90
2018-03-12T18:07:51.208Z,79.20
2018-03-12T18:10:21.022Z,78.70
2018-03-12T18:12:50.078Z,78.60
2018-03-12T18:15:19.431Z,79.00
2018-03-12T18:17:48.223Z,79.00
2018-03-12T18:20:17.980Z,80.50
2018-03-12T18:22:46.801Z,80.50
2018-03-12T18:25:16.810Z,82.20
2018-03-12T18:27:46.359Z,81.90
2018-03-12T18:30:16.255Z,84.70
2018-03-12T18:32:45.432Z,84.70
2018-03-12T18:35:14.420Z,86.20
2018-03-12T18:37:43.937Z,86.70
2018-03-12T18:40:13.253Z,88.50
2018-03-12T18:42:42.580Z,88.40
2018-03-12T18:45:12.347Z,89.60
2018-03-12T18:47:41.434Z,89.50
2018-03-12T18:50:11.053Z,90.60
2018-03-12T18:52:41.460Z,91.20
2018-03-12T18:55:10.245Z,91.20
2018-03-12T18:57:39.468Z,91.20
2018-03-12T19:00:08.681Z,91.40
2018-03-12T19:08:27.537Z,93.20
2018-03-12T19:11:01.654Z,93.40
2018-03-12T19:13:32.394Z,93.20
2018-03-12T19:18:56.209Z,94.30
2018-03-12T19:21:25.073Z,94.20
2018-03-12T19:23:54.674Z,94.40
2018-03-12T19:26:24.386Z,94.80
2018-03-12T19:28:55.426Z,94.80
2018-03-12T19:31:25.090Z,94.60
2018-03-12T19:33:55.362Z,94.60
2018-03-12T19:36:24.949Z,95.10
2018-03-12T19:38:54.370Z,95.10
2018-03-12T19:41:26.131Z,95.60
2018-03-12T19:43:56.834Z,95.60
2018-03-12T19:46:25.858Z,95.90
2018-03-12T19:48:54.530Z,95.80
2018-03-12T19:51:23.202Z,96.70
2018-03-12T19:53:52.563Z,97.10
2018-03-12T19:56:21.746Z,97.10
2018-03-12T19:58:50.671Z,97.00
2018-03-12T20:01:19.732Z,96.80
2018-03-12T20:03:50.674Z,96.50
2018-03-12T20:06:19.746Z,96.80
2018-03-12T20:08:51.282Z,96.40
2018-03-12T20:11:24.145Z,96.80
2018-03-12T20:13:55.587Z,96.90
2018-03-12T20:16:24.401Z,96.90
2018-03-12T20:18:54.203Z,96.30
2018-03-12T20:21:23.905Z,97.10
2018-03-12T20:23:53.771Z,96.40
2018-03-12T20:26:23.451Z,96.50
2018-03-12T20:28:52.275Z,96.50
2018-03-12T20:31:20.936Z,96.60
2018-03-12T20:33:50.594Z,96.70
2018-03-12T20:36:19.330Z,96.30
2018-03-12T20:38:48.371Z,96.40
2018-03-12T20:41:16.913Z,96.70
2018-03-12T20:43:45.362Z,95.50
2018-03-12T20:46:14.037Z,95.80
2018-03-12T20:48:43.070Z,96.00
2018-03-12T20:51:12.802Z,95.90
2018-03-12T20:53:41.441Z,95.50
2018-03-12T20:56:13.170Z,94.60
2018-03-12T20:58:41.749Z,94.60
2018-03-12T21:01:11.266Z,95.30
2018-03-12T21:03:40.487Z,94.30
2018-03-12T21:06:09.009Z,94.20
2018-03-12T21:08:38.050Z,94.50
2018-03-12T21:11:07.490Z,94.70
2018-03-12T21:13:38.050Z,94.80
2018-03-12T21:16:07.568Z,94.80
2018-03-12T21:18:35.467Z,94.40
2018-03-12T21:21:03.441Z,93.60
2018-03-12T21:23:31.907Z,93.90
2018-03-12T21:26:00.197Z,94.10
2018-03-12T21:28:28.261Z,94.20
2018-03-12T21:30:56.443Z,94.40
2018-03-12T21:33:24.717Z,94.10
2018-03-12T21:35:52.687Z,94.70
2018-03-12T21:38:20.957Z,95.10
2018-03-12T21:40:49.347Z,95.20
2018-03-12T21:43:17.682Z,95.20
2018-03-12T21:45:45.785Z,95.70
2018-03-12T21:48:14.165Z,95.20
2018-03-12T21:50:42.137Z,95.30
2018-03-12T21:53:10.607Z,95.10
2018-03-12T21:55:38.681Z,96.10
2018-03-12T21:58:06.755Z,96.20
2018-03-12T22:00:34.827Z,96.30
2018-03-12T22:03:02.895Z,96.20
2018-03-12T22:05:30.950Z,96.70
2018-03-12T22:07:59.155Z,97.00
2018-03-12T22:10:27.695Z,97.30
2018-03-12T22:12:55.591Z,97.10
2018-03-12T22:15:23.763Z,96.70
2018-03-12T22:17:51.941Z,97.10
2018-03-12T22:20:20.112Z,97.50
2018-03-12T22:22:48.587Z,97.60
2018-03-12T22:25:16.825Z,97.60
2018-03-12T22:27:44.887Z,97.10
2018-03-12T22:30:13.210Z,97.70
2018-03-12T22:32:41.076Z,97.40
2018-03-12T22:35:09.362Z,97.20
2018-03-12T22:37:38.412Z,96.90
2018-03-12T22:40:06.750Z,97.10
2018-03-12T22:42:36.254Z,96.70
2018-03-12T22:45:05.331Z,97.10
2018-03-12T22:47:33.395Z,97.10
2018-03-12T22:50:01.259Z,97.40
2018-03-12T22:52:29.231Z,97.10
2018-03-12T22:54:57.301Z,96.80
2018-03-12T22:57:25.369Z,96.60
2018-03-12T22:59:53.424Z,96.70
2018-03-12T23:02:21.625Z,97.00
2018-03-12T23:04:49.685Z,97.00
2018-03-12T23:07:18.341Z,96.90
2018-03-12T23:09:48.480Z,97.40
2018-03-12T23:12:16.870Z,97.00
2018-03-12T23:14:45.350Z,97.70
2018-03-12T23:17:13.801Z,97.90
2018-03-12T23:19:42.006Z,97.40
2018-03-12T23:22:15.090Z,97.70
2018-03-12T23:24:43.281Z,97.40
2018-03-12T23:27:11.951Z,97.00
2018-03-12T23:29:40.021Z,96.90
2018-03-12T23:32:09.630Z,97.10
2018-03-12T23:34:37.906Z,97.10
2018-03-12T23:37:06.205Z,96.80
2018-03-12T23:39:34.865Z,96.70
2018-03-12T23:42:02.736Z,96.70
2018-03-12T23:44:31.005Z,96.60
2018-03-12T23:47:00.121Z,96.20
2018-03-12T23:49:29.066Z,96.40
2018-03-12T23:51:58.126Z,96.40
2018-03-12T23:54:32.721Z,96.40
2018-03-12T23:57:01.055Z,96.40
2018-03-12T23:59:29.471Z,96.70
